KMBS

Mbs International Airport

Saginaw, Michigan, USA
METAR KMBS 170353Z AUTO 22010KT 10SM BKN080 09/03 A2992 RMK AO2 SLP136 T00890033
Observed Flight Rules
Oct-17 @ 03:53 UTC (2 hours ago) Visual Flight Rules
Wind Visibility Clouds
220° at 10 knots 10 miles
  • Broken at 8,000' AGL
Temperatures Readings
Current 9°C / 48°F
Dewpoint 3°C / 37°F
Humidity 66%
Altimeter 29.92" Hg
Pressure 1013.6 hPa
Elevation 202
METAR KMBS 170353Z AUTO 22010KT 10SM BKN080 09/03 A2992 RMK AO2 SLP136 T00890033
Observed Flight Rules
Oct-17 @ 03:53 UTC
(2 hours ago)
VFR
Wind Visibility
220° at 10 knots 10 miles
Clouds
  • Broken at 8,000' AGL
Temperature Dewpoint
9°C / 48°F 3°C / 37°F
Humidity Altimeter Pressure
66% 29.92" Hg 1013.6 hPa